Accueil
METAR-TAF:

METAR-TAF

Aéroports :

Laupheim, Allemagne

latitude: 48-13N, longitude: 009-55E, altitude: 538 m

Observation

Le bulletin a été fait il y a 50 minutes, à 10:20 UTC
Vent 4 kt de ouest/sud-ouest
Température 10°C
Humidité 50%
Pression 1001 hPa
Visibilité 10 km ou plus
Quelques nuages à une hauteur de 8000 ft
Nuages épars à une hauteur de 11000 ft
Nuages fragmentés à une hauteur de 23000 ft

METAR: ETHL 291020Z 25004KT 9999 FEW080 SCT110 BKN230 10/00 Q1001 BLU+

Heure: 12:10 (11:10 UTC)

Prévision

Le bulletin a été fait il y a 24 heures et 55 minutes, à 10:15 UTC
Prévision valable du 28 à 10 UTC au 28 à 18 UTC
Vent 10 kt de ouest avec des rafales jusqu'à 20 kt
Visibilité 10 km ou plus
Quelques nuages à une hauteur de 1500 ft
Nuages épars à une hauteur de 4000 ft

TAF: ETHL 281015Z 2810/2818 26010G20KT 9999 NSW FEW015 SCT040 CANCEL 1100Z

Observations et prévisions météorologiques de plus de 4000 aéroports (messages METAR et TAF).

Les stations disponibles sont représentées par des disques jaunes et rouges sur la carte.

Passer la souris dessus pour voir le nom de la station.

Cliquer dessus pour voir les observations et prévisions météorologiques.

Pour changer de carte: cliquez sur les boutons verts avec une croix noire pour zoomer, sur le bouton vert avec un tiret pour effectuer un zoom arrière, ou sur les flèches vertes pour les cartes adjacentes.


METAR-TAF: